sensor_id;sensor_type;location;lat;lon;timestamp;temperature;humidity
13229;DHT22;6680;53.220;10.402;2022-10-31T00:00:55;10.50;99.90
13229;DHT22;6680;53.220;10.402;2022-10-31T00:03:23;10.50;99.90
13229;DHT22;6680;53.220;10.402;2022-10-31T00:05:52;10.50;99.90
13229;DHT22;6680;53.220;10.402;2022-10-31T00:08:19;10.50;99.90
13229;DHT22;6680;53.220;10.402;2022-10-31T00:10:46;10.50;99.90
13229;DHT22;6680;53.220;10.402;2022-10-31T00:13:13;10.40;99.90
13229;DHT22;6680;53.220;10.402;2022-10-31T00:15:40;10.40;99.90
13229;DHT22;6680;53.220;10.402;2022-10-31T00:18:09;10.40;99.90
13229;DHT22;6680;53.220;10.402;2022-10-31T00:20:37;10.40;99.90
13229;DHT22;6680;53.220;10.402;2022-10-31T00:23:05;10.30;99.90
13229;DHT22;6680;53.220;10.402;2022-10-31T00:25:33;10.40;99.90
13229;DHT22;6680;53.220;10.402;2022-10-31T00:28:00;10.30;99.90
13229;DHT22;6680;53.220;10.402;2022-10-31T00:30:27;10.30;99.90
13229;DHT22;6680;53.220;10.402;2022-10-31T00:32:54;10.40;99.90
13229;DHT22;6680;53.220;10.402;2022-10-31T00:35:20;10.30;99.90
13229;DHT22;6680;53.220;10.402;2022-10-31T00:37:48;10.30;99.90
13229;DHT22;6680;53.220;10.402;2022-10-31T00:40:15;10.30;99.90
13229;DHT22;6680;53.220;10.402;2022-10-31T00:42:43;10.30;99.90
13229;DHT22;6680;53.220;10.402;2022-10-31T00:45:10;10.30;99.90
13229;DHT22;6680;53.220;10.402;2022-10-31T00:47:37;10.30;99.90
13229;DHT22;6680;53.220;10.402;2022-10-31T00:50:04;10.20;99.90
13229;DHT22;6680;53.220;10.402;2022-10-31T00:52:31;10.20;99.90
13229;DHT22;6680;53.220;10.402;2022-10-31T00:54:59;10.20;99.90
13229;DHT22;6680;53.220;10.402;2022-10-31T00:57:26;10.20;99.90
13229;DHT22;6680;53.220;10.402;2022-10-31T00:59:53;10.20;99.90
13229;DHT22;6680;53.220;10.402;2022-10-31T01:02:20;10.20;99.90
13229;DHT22;6680;53.220;10.402;2022-10-31T01:04:46;10.20;99.90
13229;DHT22;6680;53.220;10.402;2022-10-31T01:07:13;10.20;99.90
13229;DHT22;6680;53.220;10.402;2022-10-31T01:09:40;10.20;99.90
13229;DHT22;6680;53.220;10.402;2022-10-31T01:12:08;10.10;99.90
13229;DHT22;6680;53.220;10.402;2022-10-31T01:14:34;10.10;99.90
13229;DHT22;6680;53.220;10.402;2022-10-31T01:17:01;10.10;99.90
13229;DHT22;6680;53.220;10.402;2022-10-31T01:19:28;10.00;99.90
13229;DHT22;6680;53.220;10.402;2022-10-31T01:21:55;10.00;99.90
13229;DHT22;6680;53.220;10.402;2022-10-31T01:24:21;10.00;99.90
13229;DHT22;6680;53.220;10.402;2022-10-31T01:26:48;10.00;99.90
13229;DHT22;6680;53.220;10.402;2022-10-31T01:29:16;10.00;99.90
13229;DHT22;6680;53.220;10.402;2022-10-31T01:31:43;10.00;99.90
13229;DHT22;6680;53.220;10.402;2022-10-31T01:34:13;10.00;99.90
13229;DHT22;6680;53.220;10.402;2022-10-31T01:36:41;10.00;99.90
13229;DHT22;6680;53.220;10.402;2022-10-31T01:39:10;10.00;99.90
13229;DHT22;6680;53.220;10.402;2022-10-31T01:41:39;10.00;99.90
13229;DHT22;6680;53.220;10.402;2022-10-31T01:47:06;10.00;99.90
13229;DHT22;6680;53.220;10.402;2022-10-31T01:49:36;10.00;99.90
13229;DHT22;6680;53.220;10.402;2022-10-31T01:52:07;10.00;99.90
13229;DHT22;6680;53.220;10.402;2022-10-31T01:54:41;10.00;99.90
13229;DHT22;6680;53.220;10.402;2022-10-31T01:57:13;10.10;99.90
13229;DHT22;6680;53.220;10.402;2022-10-31T01:59:43;10.00;99.90
13229;DHT22;6680;53.220;10.402;2022-10-31T02:02:13;10.00;99.90
13229;DHT22;6680;53.220;10.402;2022-10-31T02:04:41;10.00;99.90
13229;DHT22;6680;53.220;10.402;2022-10-31T02:07:12;9.90;99.90
13229;DHT22;6680;53.220;10.402;2022-10-31T02:09:41;9.90;99.90
13229;DHT22;6680;53.220;10.402;2022-10-31T02:12:10;9.90;99.90
13229;DHT22;6680;53.220;10.402;2022-10-31T02:14:38;9.90;99.90
13229;DHT22;6680;53.220;10.402;2022-10-31T02:17:05;9.90;99.90
13229;DHT22;6680;53.220;10.402;2022-10-31T02:19:38;10.00;99.90
13229;DHT22;6680;53.220;10.402;2022-10-31T02:22:13;10.00;99.90
13229;DHT22;6680;53.220;10.402;2022-10-31T02:24:54;10.00;99.90
13229;DHT22;6680;53.220;10.402;2022-10-31T02:27:59;10.00;99.90
13229;DHT22;6680;53.220;10.402;2022-10-31T02:30:33;10.00;99.90
13229;DHT22;6680;53.220;10.402;2022-10-31T02:33:15;10.00;99.90
13229;DHT22;6680;53.220;10.402;2022-10-31T02:35:53;10.00;99.90
13229;DHT22;6680;53.220;10.402;2022-10-31T02:38:28;10.00;99.90
13229;DHT22;6680;53.220;10.402;2022-10-31T02:41:01;10.00;99.90
13229;DHT22;6680;53.220;10.402;2022-10-31T02:43:35;10.00;99.90
13229;DHT22;6680;53.220;10.402;2022-10-31T02:46:10;10.10;99.90
13229;DHT22;6680;53.220;10.402;2022-10-31T02:48:43;10.10;99.90
13229;DHT22;6680;53.220;10.402;2022-10-31T02:51:11;10.20;99.90
13229;DHT22;6680;53.220;10.402;2022-10-31T02:53:38;9.90;99.90
13229;DHT22;6680;53.220;10.402;2022-10-31T02:56:07;10.20;99.90
13229;DHT22;6680;53.220;10.402;2022-10-31T02:58:38;10.20;99.90
13229;DHT22;6680;53.220;10.402;2022-10-31T03:01:28;10.20;99.90
13229;DHT22;6680;53.220;10.402;2022-10-31T03:06:56;10.30;99.90
13229;DHT22;6680;53.220;10.402;2022-10-31T03:09:32;10.30;99.90
13229;DHT22;6680;53.220;10.402;2022-10-31T03:12:05;10.30;99.90
13229;DHT22;6680;53.220;10.402;2022-10-31T03:14:40;10.30;99.90
13229;DHT22;6680;53.220;10.402;2022-10-31T03:17:13;10.30;99.90
13229;DHT22;6680;53.220;10.402;2022-10-31T03:19:48;10.30;99.90
13229;DHT22;6680;53.220;10.402;2022-10-31T03:22:17;10.30;99.90
13229;DHT22;6680;53.220;10.402;2022-10-31T03:24:45;10.30;99.90
13229;DHT22;6680;53.220;10.402;2022-10-31T03:27:16;10.30;99.90
13229;DHT22;6680;53.220;10.402;2022-10-31T03:29:45;10.40;99.90
13229;DHT22;6680;53.220;10.402;2022-10-31T03:32:15;10.40;99.90
13229;DHT22;6680;53.220;10.402;2022-10-31T03:34:44;10.30;99.90
13229;DHT22;6680;53.220;10.402;2022-10-31T03:37:16;10.30;99.90
13229;DHT22;6680;53.220;10.402;2022-10-31T03:39:45;10.30;99.90
13229;DHT22;6680;53.220;10.402;2022-10-31T03:42:23;10.30;99.90
13229;DHT22;6680;53.220;10.402;2022-10-31T03:44:55;10.30;99.90
13229;DHT22;6680;53.220;10.402;2022-10-31T03:47:23;10.30;99.90
13229;DHT22;6680;53.220;10.402;2022-10-31T03:49:50;10.30;99.90
13229;DHT22;6680;53.220;10.402;2022-10-31T03:52:23;10.30;99.90
13229;DHT22;6680;53.220;10.402;2022-10-31T03:54:54;10.40;99.90
13229;DHT22;6680;53.220;10.402;2022-10-31T03:57:25;10.40;99.90
13229;DHT22;6680;53.220;10.402;2022-10-31T03:59:55;10.40;99.90
13229;DHT22;6680;53.220;10.402;2022-10-31T04:02:27;10.30;99.90
13229;DHT22;6680;53.220;10.402;2022-10-31T04:04:56;10.30;99.90
13229;DHT22;6680;53.220;10.402;2022-10-31T04:07:28;10.30;99.90
13229;DHT22;6680;53.220;10.402;2022-10-31T04:09:57;10.30;99.90
13229;DHT22;6680;53.220;10.402;2022-10-31T04:12:27;10.40;99.90
13229;DHT22;6680;53.220;10.402;2022-10-31T04:14:56;10.50;99.90
13229;DHT22;6680;53.220;10.402;2022-10-31T04:17:26;10.50;99.90
13229;DHT22;6680;53.220;10.402;2022-10-31T04:19:53;10.50;99.90
13229;DHT22;6680;53.220;10.402;2022-10-31T04:22:20;10.50;99.90
13229;DHT22;6680;53.220;10.402;2022-10-31T04:24:48;10.50;99.90
13229;DHT22;6680;53.220;10.402;2022-10-31T04:27:15;10.50;99.90
13229;DHT22;6680;53.220;10.402;2022-10-31T04:29:41;10.50;99.90
13229;DHT22;6680;53.220;10.402;2022-10-31T04:32:08;10.50;99.90
13229;DHT22;6680;53.220;10.402;2022-10-31T04:34:35;10.50;99.90
13229;DHT22;6680;53.220;10.402;2022-10-31T04:37:02;10.50;99.90
13229;DHT22;6680;53.220;10.402;2022-10-31T04:39:29;10.60;99.90
13229;DHT22;6680;53.220;10.402;2022-10-31T04:41:57;10.60;99.90
13229;DHT22;6680;53.220;10.402;2022-10-31T04:44:23;10.50;99.90
13229;DHT22;6680;53.220;10.402;2022-10-31T04:46:50;10.60;99.90
13229;DHT22;6680;53.220;10.402;2022-10-31T04:49:17;10.60;99.90
13229;DHT22;6680;53.220;10.402;2022-10-31T04:51:43;10.60;99.90
13229;DHT22;6680;53.220;10.402;2022-10-31T04:54:10;10.60;99.90
13229;DHT22;6680;53.220;10.402;2022-10-31T04:56:37;10.60;99.90
13229;DHT22;6680;53.220;10.402;2022-10-31T04:59:05;10.60;99.90
13229;DHT22;6680;53.220;10.402;2022-10-31T05:01:31;10.70;99.90
13229;DHT22;6680;53.220;10.402;2022-10-31T05:03:58;10.70;99.90
13229;DHT22;6680;53.220;10.402;2022-10-31T05:06:25;10.70;99.90
13229;DHT22;6680;53.220;10.402;2022-10-31T05:08:51;10.80;99.90
13229;DHT22;6680;53.220;10.402;2022-10-31T05:11:18;10.80;99.90
13229;DHT22;6680;53.220;10.402;2022-10-31T05:13:45;10.80;99.90
13229;DHT22;6680;53.220;10.402;2022-10-31T05:16:13;10.80;99.90
13229;DHT22;6680;53.220;10.402;2022-10-31T05:18:39;10.80;99.90
13229;DHT22;6680;53.220;10.402;2022-10-31T05:21:06;10.90;99.90
13229;DHT22;6680;53.220;10.402;2022-10-31T05:23:33;11.40;99.90
13229;DHT22;6680;53.220;10.402;2022-10-31T05:25:59;11.20;99.90
13229;DHT22;6680;53.220;10.402;2022-10-31T05:28:26;11.40;99.90
13229;DHT22;6680;53.220;10.402;2022-10-31T05:30:53;11.40;99.90
13229;DHT22;6680;53.220;10.402;2022-10-31T05:33:21;11.50;99.90
13229;DHT22;6680;53.220;10.402;2022-10-31T05:35:48;11.60;99.90
13229;DHT22;6680;53.220;10.402;2022-10-31T05:38:15;11.80;99.90
13229;DHT22;6680;53.220;10.402;2022-10-31T05:40:42;11.90;99.90
13229;DHT22;6680;53.220;10.402;2022-10-31T05:43:08;12.00;99.90
13229;DHT22;6680;53.220;10.402;2022-10-31T05:45:35;12.10;99.90
13229;DHT22;6680;53.220;10.402;2022-10-31T05:48:02;12.10;99.90
13229;DHT22;6680;53.220;10.402;2022-10-31T05:50:31;12.20;99.90
13229;DHT22;6680;53.220;10.402;2022-10-31T05:53:00;12.20;99.90
13229;DHT22;6680;53.220;10.402;2022-10-31T05:55:28;12.20;99.90
13229;DHT22;6680;53.220;10.402;2022-10-31T05:57:55;12.20;99.90
13229;DHT22;6680;53.220;10.402;2022-10-31T06:00:23;12.20;99.90
13229;DHT22;6680;53.220;10.402;2022-10-31T06:02:57;12.30;99.90
13229;DHT22;6680;53.220;10.402;2022-10-31T06:05:24;12.30;99.90
13229;DHT22;6680;53.220;10.402;2022-10-31T06:07:52;12.30;99.90
13229;DHT22;6680;53.220;10.402;2022-10-31T06:10:19;12.30;99.90
13229;DHT22;6680;53.220;10.402;2022-10-31T06:12:46;12.30;99.90
13229;DHT22;6680;53.220;10.402;2022-10-31T06:15:13;12.30;99.90
13229;DHT22;6680;53.220;10.402;2022-10-31T06:17:40;12.40;99.90
13229;DHT22;6680;53.220;10.402;2022-10-31T06:20:08;12.40;99.90
13229;DHT22;6680;53.220;10.402;2022-10-31T06:22:35;12.50;99.90
13229;DHT22;6680;53.220;10.402;2022-10-31T06:25:03;12.40;99.90
13229;DHT22;6680;53.220;10.402;2022-10-31T06:27:30;12.40;99.90
13229;DHT22;6680;53.220;10.402;2022-10-31T06:29:57;12.40;99.90
13229;DHT22;6680;53.220;10.402;2022-10-31T06:32:23;12.50;99.90
13229;DHT22;6680;53.220;10.402;2022-10-31T06:34:50;12.40;99.90
13229;DHT22;6680;53.220;10.402;2022-10-31T06:37:17;12.50;99.90
13229;DHT22;6680;53.220;10.402;2022-10-31T06:39:43;12.50;99.90
13229;DHT22;6680;53.220;10.402;2022-10-31T06:42:11;12.50;99.90
13229;DHT22;6680;53.220;10.402;2022-10-31T06:44:38;12.50;99.90
13229;DHT22;6680;53.220;10.402;2022-10-31T06:47:05;12.50;99.90
13229;DHT22;6680;53.220;10.402;2022-10-31T06:49:32;12.60;99.90
13229;DHT22;6680;53.220;10.402;2022-10-31T06:51:58;12.60;99.90
13229;DHT22;6680;53.220;10.402;2022-10-31T06:54:25;12.70;99.90
13229;DHT22;6680;53.220;10.402;2022-10-31T06:56:52;12.70;99.90
13229;DHT22;6680;53.220;10.402;2022-10-31T06:59:20;12.80;99.90
13229;DHT22;6680;53.220;10.402;2022-10-31T07:01:47;12.80;99.90
13229;DHT22;6680;53.220;10.402;2022-10-31T07:04:13;12.90;99.90
13229;DHT22;6680;53.220;10.402;2022-10-31T07:06:40;12.90;99.90
13229;DHT22;6680;53.220;10.402;2022-10-31T07:09:07;12.90;99.90
13229;DHT22;6680;53.220;10.402;2022-10-31T07:11:33;13.00;99.90
13229;DHT22;6680;53.220;10.402;2022-10-31T07:14:00;13.00;99.90
13229;DHT22;6680;53.220;10.402;2022-10-31T07:16:28;13.00;99.90
13229;DHT22;6680;53.220;10.402;2022-10-31T07:18:54;13.10;99.90
13229;DHT22;6680;53.220;10.402;2022-10-31T07:21:21;13.10;99.90
13229;DHT22;6680;53.220;10.402;2022-10-31T07:23:48;13.10;99.90
13229;DHT22;6680;53.220;10.402;2022-10-31T07:26:15;13.20;99.90
13229;DHT22;6680;53.220;10.402;2022-10-31T07:28:42;13.20;99.90
13229;DHT22;6680;53.220;10.402;2022-10-31T07:31:08;13.30;99.90
13229;DHT22;6680;53.220;10.402;2022-10-31T07:33:36;13.50;99.90
13229;DHT22;6680;53.220;10.402;2022-10-31T07:36:03;13.30;99.90
13229;DHT22;6680;53.220;10.402;2022-10-31T07:38:30;13.40;99.90
13229;DHT22;6680;53.220;10.402;2022-10-31T07:40:57;13.50;99.90
13229;DHT22;6680;53.220;10.402;2022-10-31T07:43:23;13.50;99.90
13229;DHT22;6680;53.220;10.402;2022-10-31T07:45:51;13.60;99.90
13229;DHT22;6680;53.220;10.402;2022-10-31T07:48:18;13.70;99.90
13229;DHT22;6680;53.220;10.402;2022-10-31T07:50:46;13.70;99.90
13229;DHT22;6680;53.220;10.402;2022-10-31T07:53:14;13.80;99.90
13229;DHT22;6680;53.220;10.402;2022-10-31T07:55:41;13.80;99.90
13229;DHT22;6680;53.220;10.402;2022-10-31T07:58:10;13.80;99.90
13229;DHT22;6680;53.220;10.402;2022-10-31T08:00:38;13.80;99.90
13229;DHT22;6680;53.220;10.402;2022-10-31T08:03:06;13.90;99.90
13229;DHT22;6680;53.220;10.402;2022-10-31T08:05:34;13.90;99.90
13229;DHT22;6680;53.220;10.402;2022-10-31T08:08:02;14.00;99.90
13229;DHT22;6680;53.220;10.402;2022-10-31T08:10:30;14.00;99.90
13229;DHT22;6680;53.220;10.402;2022-10-31T08:12:58;14.00;99.90
13229;DHT22;6680;53.220;10.402;2022-10-31T08:15:25;14.10;99.90
13229;DHT22;6680;53.220;10.402;2022-10-31T08:17:52;14.10;99.90
13229;DHT22;6680;53.220;10.402;2022-10-31T08:20:20;14.20;99.90
13229;DHT22;6680;53.220;10.402;2022-10-31T08:22:56;14.20;99.90
13229;DHT22;6680;53.220;10.402;2022-10-31T08:25:25;14.30;99.90
13229;DHT22;6680;53.220;10.402;2022-10-31T08:27:53;14.30;99.90
13229;DHT22;6680;53.220;10.402;2022-10-31T08:30:21;14.40;99.90
13229;DHT22;6680;53.220;10.402;2022-10-31T08:32:57;14.50;99.90
13229;DHT22;6680;53.220;10.402;2022-10-31T08:35:24;14.50;99.90
13229;DHT22;6680;53.220;10.402;2022-10-31T08:37:52;14.60;99.90
13229;DHT22;6680;53.220;10.402;2022-10-31T08:40:19;14.60;99.90
13229;DHT22;6680;53.220;10.402;2022-10-31T08:42:47;14.70;99.90
13229;DHT22;6680;53.220;10.402;2022-10-31T08:45:14;14.80;99.90
13229;DHT22;6680;53.220;10.402;2022-10-31T08:47:40;14.90;99.90
13229;DHT22;6680;53.220;10.402;2022-10-31T08:50:08;15.00;99.90
13229;DHT22;6680;53.220;10.402;2022-10-31T08:52:34;15.10;99.90
13229;DHT22;6680;53.220;10.402;2022-10-31T08:55:01;15.20;99.90
13229;DHT22;6680;53.220;10.402;2022-10-31T08:57:27;15.30;99.90
13229;DHT22;6680;53.220;10.402;2022-10-31T08:59:55;15.40;99.90
13229;DHT22;6680;53.220;10.402;2022-10-31T09:02:22;15.40;99.90
13229;DHT22;6680;53.220;10.402;2022-10-31T09:04:49;15.50;99.90
13229;DHT22;6680;53.220;10.402;2022-10-31T09:07:15;15.50;99.90
13229;DHT22;6680;53.220;10.402;2022-10-31T09:09:42;15.50;99.90
13229;DHT22;6680;53.220;10.402;2022-10-31T09:12:09;15.60;99.90
13229;DHT22;6680;53.220;10.402;2022-10-31T09:14:35;15.60;99.90
13229;DHT22;6680;53.220;10.402;2022-10-31T09:17:03;15.50;99.90
13229;DHT22;6680;53.220;10.402;2022-10-31T09:19:30;15.30;99.90
13229;DHT22;6680;53.220;10.402;2022-10-31T09:21:57;15.20;99.90
13229;DHT22;6680;53.220;10.402;2022-10-31T09:24:23;15.20;99.90
13229;DHT22;6680;53.220;10.402;2022-10-31T09:26:50;15.10;99.90
13229;DHT22;6680;53.220;10.402;2022-10-31T09:29:16;15.10;99.90
13229;DHT22;6680;53.220;10.402;2022-10-31T09:31:43;15.10;99.90
13229;DHT22;6680;53.220;10.402;2022-10-31T09:34:11;15.10;99.90
13229;DHT22;6680;53.220;10.402;2022-10-31T09:36:38;15.20;99.90
13229;DHT22;6680;53.220;10.402;2022-10-31T09:39:05;15.30;99.90
13229;DHT22;6680;53.220;10.402;2022-10-31T09:41:47;15.30;99.90
13229;DHT22;6680;53.220;10.402;2022-10-31T09:44:21;15.40;99.90
13229;DHT22;6680;53.220;10.402;2022-10-31T09:46:57;15.40;99.90
13229;DHT22;6680;53.220;10.402;2022-10-31T09:50:00;15.50;99.90
13229;DHT22;6680;53.220;10.402;2022-10-31T09:52:30;15.50;99.90
13229;DHT22;6680;53.220;10.402;2022-10-31T09:55:04;15.50;99.90
13229;DHT22;6680;53.220;10.402;2022-10-31T09:57:33;15.60;99.90
13229;DHT22;6680;53.220;10.402;2022-10-31T10:00:02;15.50;99.90
13229;DHT22;6680;53.220;10.402;2022-10-31T10:02:33;15.60;99.90
13229;DHT22;6680;53.220;10.402;2022-10-31T10:05:05;15.60;99.90
13229;DHT22;6680;53.220;10.402;2022-10-31T10:07:42;15.60;99.90
13229;DHT22;6680;53.220;10.402;2022-10-31T10:10:15;15.60;99.90
13229;DHT22;6680;53.220;10.402;2022-10-31T10:13:00;15.60;99.90
13229;DHT22;6680;53.220;10.402;2022-10-31T10:15:39;15.70;99.90
13229;DHT22;6680;53.220;10.402;2022-10-31T10:18:16;15.70;99.90
13229;DHT22;6680;53.220;10.402;2022-10-31T10:20:55;15.70;99.90
13229;DHT22;6680;53.220;10.402;2022-10-31T10:23:37;15.80;99.90
13229;DHT22;6680;53.220;10.402;2022-10-31T10:26:13;15.80;99.90
13229;DHT22;6680;53.220;10.402;2022-10-31T10:28:44;15.90;99.90
13229;DHT22;6680;53.220;10.402;2022-10-31T10:31:14;16.00;99.90
13229;DHT22;6680;53.220;10.402;2022-10-31T10:33:43;16.40;99.90
13229;DHT22;6680;53.220;10.402;2022-10-31T10:36:16;16.10;99.90
13229;DHT22;6680;53.220;10.402;2022-10-31T10:38:49;16.20;99.90
13229;DHT22;6680;53.220;10.402;2022-10-31T10:41:18;16.40;99.90
13229;DHT22;6680;53.220;10.402;2022-10-31T10:43:45;16.30;99.90
13229;DHT22;6680;53.220;10.402;2022-10-31T10:46:19;16.50;99.90
13229;DHT22;6680;53.220;10.402;2022-10-31T10:49:15;16.50;99.90
13229;DHT22;6680;53.220;10.402;2022-10-31T10:51:46;16.60;99.90
13229;DHT22;6680;53.220;10.402;2022-10-31T10:57:10;16.50;99.90
13229;DHT22;6680;53.220;10.402;2022-10-31T10:59:38;16.40;99.90
13229;DHT22;6680;53.220;10.402;2022-10-31T11:02:16;16.20;99.90
13229;DHT22;6680;53.220;10.402;2022-10-31T11:04:43;16.10;99.90
13229;DHT22;6680;53.220;10.402;2022-10-31T11:07:12;16.00;99.90
13229;DHT22;6680;53.220;10.402;2022-10-31T11:09:39;15.90;99.90
13229;DHT22;6680;53.220;10.402;2022-10-31T11:12:08;15.90;99.90
13229;DHT22;6680;53.220;10.402;2022-10-31T11:14:42;16.00;99.90
13229;DHT22;6680;53.220;10.402;2022-10-31T11:17:19;16.20;99.90
13229;DHT22;6680;53.220;10.402;2022-10-31T11:19:46;16.30;99.90
13229;DHT22;6680;53.220;10.402;2022-10-31T11:22:17;16.30;99.90
13229;DHT22;6680;53.220;10.402;2022-10-31T11:24:44;16.30;99.90
13229;DHT22;6680;53.220;10.402;2022-10-31T11:27:15;16.30;99.90
13229;DHT22;6680;53.220;10.402;2022-10-31T11:29:42;16.30;99.90
13229;DHT22;6680;53.220;10.402;2022-10-31T11:32:18;16.20;99.90
13229;DHT22;6680;53.220;10.402;2022-10-31T11:34:47;16.20;99.90
13229;DHT22;6680;53.220;10.402;2022-10-31T11:37:20;16.20;99.90
13229;DHT22;6680;53.220;10.402;2022-10-31T11:39:51;16.20;99.90
13229;DHT22;6680;53.220;10.402;2022-10-31T11:42:21;16.20;99.90
13229;DHT22;6680;53.220;10.402;2022-10-31T11:44:50;16.10;99.90
13229;DHT22;6680;53.220;10.402;2022-10-31T11:47:24;16.10;99.90
13229;DHT22;6680;53.220;10.402;2022-10-31T11:49:51;16.00;99.90
13229;DHT22;6680;53.220;10.402;2022-10-31T11:52:22;15.90;99.90
13229;DHT22;6680;53.220;10.402;2022-10-31T11:54:54;16.00;99.90
13229;DHT22;6680;53.220;10.402;2022-10-31T11:57:26;16.00;99.90
13229;DHT22;6680;53.220;10.402;2022-10-31T11:59:55;16.20;99.90
13229;DHT22;6680;53.220;10.402;2022-10-31T12:02:22;16.30;99.90
13229;DHT22;6680;53.220;10.402;2022-10-31T12:04:55;16.30;99.90
13229;DHT22;6680;53.220;10.402;2022-10-31T12:07:24;16.30;99.90
13229;DHT22;6680;53.220;10.402;2022-10-31T12:09:51;16.30;99.90
13229;DHT22;6680;53.220;10.402;2022-10-31T12:12:41;16.30;99.90
13229;DHT22;6680;53.220;10.402;2022-10-31T12:15:27;16.30;99.90
13229;DHT22;6680;53.220;10.402;2022-10-31T12:20:46;16.40;99.90
13229;DHT22;6680;53.220;10.402;2022-10-31T12:23:32;16.40;99.90
13229;DHT22;6680;53.220;10.402;2022-10-31T12:26:11;16.50;99.90
13229;DHT22;6680;53.220;10.402;2022-10-31T12:28:57;16.40;99.90
13229;DHT22;6680;53.220;10.402;2022-10-31T12:31:40;16.40;99.90
13229;DHT22;6680;53.220;10.402;2022-10-31T12:34:28;16.30;99.90
13229;DHT22;6680;53.220;10.402;2022-10-31T12:37:03;16.30;99.90
13229;DHT22;6680;53.220;10.402;2022-10-31T12:39:42;16.20;99.90
13229;DHT22;6680;53.220;10.402;2022-10-31T12:42:18;16.20;99.90
13229;DHT22;6680;53.220;10.402;2022-10-31T12:45:08;16.20;99.90
13229;DHT22;6680;53.220;10.402;2022-10-31T12:48:07;16.20;99.90
13229;DHT22;6680;53.220;10.402;2022-10-31T12:50:51;16.20;99.90
13229;DHT22;6680;53.220;10.402;2022-10-31T12:53:31;16.10;99.90
13229;DHT22;6680;53.220;10.402;2022-10-31T12:56:12;16.10;99.90
13229;DHT22;6680;53.220;10.402;2022-10-31T12:58:47;16.00;99.90
13229;DHT22;6680;53.220;10.402;2022-10-31T13:01:18;15.90;99.90
13229;DHT22;6680;53.220;10.402;2022-10-31T13:03:51;15.70;99.90
13229;DHT22;6680;53.220;10.402;2022-10-31T13:06:20;15.70;99.90
13229;DHT22;6680;53.220;10.402;2022-10-31T13:08:52;15.60;99.90
13229;DHT22;6680;53.220;10.402;2022-10-31T13:11:23;15.50;99.90
13229;DHT22;6680;53.220;10.402;2022-10-31T13:13:57;15.50;99.90
13229;DHT22;6680;53.220;10.402;2022-10-31T13:16:29;15.40;99.90
13229;DHT22;6680;53.220;10.402;2022-10-31T13:19:00;15.30;99.90
13229;DHT22;6680;53.220;10.402;2022-10-31T13:21:47;15.30;99.90
13229;DHT22;6680;53.220;10.402;2022-10-31T13:24:22;15.20;99.90
13229;DHT22;6680;53.220;10.402;2022-10-31T13:26:54;15.20;99.90
13229;DHT22;6680;53.220;10.402;2022-10-31T13:29:24;15.10;99.90
13229;DHT22;6680;53.220;10.402;2022-10-31T13:31:52;15.10;99.90
13229;DHT22;6680;53.220;10.402;2022-10-31T13:34:25;15.10;99.90
13229;DHT22;6680;53.220;10.402;2022-10-31T13:37:00;15.10;99.90
13229;DHT22;6680;53.220;10.402;2022-10-31T13:39:35;15.00;99.90
13229;DHT22;6680;53.220;10.402;2022-10-31T13:42:13;15.00;99.90
13229;DHT22;6680;53.220;10.402;2022-10-31T13:44:42;14.90;99.90
13229;DHT22;6680;53.220;10.402;2022-10-31T13:47:23;14.90;99.90
13229;DHT22;6680;53.220;10.402;2022-10-31T13:49:50;14.90;99.90
13229;DHT22;6680;53.220;10.402;2022-10-31T13:52:22;14.90;99.90
13229;DHT22;6680;53.220;10.402;2022-10-31T13:54:51;14.90;99.90
13229;DHT22;6680;53.220;10.402;2022-10-31T13:57:31;14.90;99.90
13229;DHT22;6680;53.220;10.402;2022-10-31T14:00:02;14.90;99.90
13229;DHT22;6680;53.220;10.402;2022-10-31T14:02:31;14.90;99.90
13229;DHT22;6680;53.220;10.402;2022-10-31T14:05:00;14.90;99.90
13229;DHT22;6680;53.220;10.402;2022-10-31T14:07:29;14.90;99.90
13229;DHT22;6680;53.220;10.402;2022-10-31T14:09:58;14.90;99.90
13229;DHT22;6680;53.220;10.402;2022-10-31T14:12:30;14.80;99.90
13229;DHT22;6680;53.220;10.402;2022-10-31T14:15:00;14.80;99.90
13229;DHT22;6680;53.220;10.402;2022-10-31T14:17:33;14.80;99.90
13229;DHT22;6680;53.220;10.402;2022-10-31T14:20:34;14.70;99.90
13229;DHT22;6680;53.220;10.402;2022-10-31T14:23:31;14.70;99.90
13229;DHT22;6680;53.220;10.402;2022-10-31T14:26:29;14.70;99.90
13229;DHT22;6680;53.220;10.402;2022-10-31T14:28:59;14.70;99.90
13229;DHT22;6680;53.220;10.402;2022-10-31T14:31:31;14.60;99.90
13229;DHT22;6680;53.220;10.402;2022-10-31T14:34:01;14.60;99.90
13229;DHT22;6680;53.220;10.402;2022-10-31T14:36:36;14.20;99.90
13229;DHT22;6680;53.220;10.402;2022-10-31T14:39:08;14.50;99.90
13229;DHT22;6680;53.220;10.402;2022-10-31T14:41:55;14.40;99.90
13229;DHT22;6680;53.220;10.402;2022-10-31T14:44:54;14.40;99.90
13229;DHT22;6680;53.220;10.402;2022-10-31T14:47:32;14.40;99.90
13229;DHT22;6680;53.220;10.402;2022-10-31T14:50:23;14.40;99.90
13229;DHT22;6680;53.220;10.402;2022-10-31T14:52:54;14.30;99.90
13229;DHT22;6680;53.220;10.402;2022-10-31T14:55:23;14.20;99.90
13229;DHT22;6680;53.220;10.402;2022-10-31T14:57:52;14.20;99.90
13229;DHT22;6680;53.220;10.402;2022-10-31T15:00:23;14.20;99.90
13229;DHT22;6680;53.220;10.402;2022-10-31T15:03:03;14.20;99.90
13229;DHT22;6680;53.220;10.402;2022-10-31T15:05:31;14.20;99.90
13229;DHT22;6680;53.220;10.402;2022-10-31T15:07:59;14.10;99.90
13229;DHT22;6680;53.220;10.402;2022-10-31T15:10:27;14.00;99.90
13229;DHT22;6680;53.220;10.402;2022-10-31T15:12:55;13.90;99.90
13229;DHT22;6680;53.220;10.402;2022-10-31T15:15:25;13.80;99.90
13229;DHT22;6680;53.220;10.402;2022-10-31T15:17:54;13.70;99.90
13229;DHT22;6680;53.220;10.402;2022-10-31T15:20:24;13.60;99.90
13229;DHT22;6680;53.220;10.402;2022-10-31T15:22:51;13.60;99.90
13229;DHT22;6680;53.220;10.402;2022-10-31T15:25:21;13.50;99.90
13229;DHT22;6680;53.220;10.402;2022-10-31T15:27:49;13.50;99.90
13229;DHT22;6680;53.220;10.402;2022-10-31T15:30:18;13.40;99.90
13229;DHT22;6680;53.220;10.402;2022-10-31T15:32:47;13.30;99.90
13229;DHT22;6680;53.220;10.402;2022-10-31T15:35:21;13.20;99.90
13229;DHT22;6680;53.220;10.402;2022-10-31T15:37:49;13.20;99.90
13229;DHT22;6680;53.220;10.402;2022-10-31T15:40:19;13.10;99.90
13229;DHT22;6680;53.220;10.402;2022-10-31T15:42:50;13.10;99.90
13229;DHT22;6680;53.220;10.402;2022-10-31T15:45:19;13.00;99.90
13229;DHT22;6680;53.220;10.402;2022-10-31T15:47:54;12.90;99.90
13229;DHT22;6680;53.220;10.402;2022-10-31T15:50:28;12.90;99.90
13229;DHT22;6680;53.220;10.402;2022-10-31T15:52:56;12.90;99.90
13229;DHT22;6680;53.220;10.402;2022-10-31T15:55:25;12.80;99.90
13229;DHT22;6680;53.220;10.402;2022-10-31T15:57:55;12.80;99.90
13229;DHT22;6680;53.220;10.402;2022-10-31T16:00:24;12.80;99.90
13229;DHT22;6680;53.220;10.402;2022-10-31T16:03:04;12.70;99.90